Hauptseite
METAR-TAF:

METAR-TAF

Flughäfen :

Flughafen Dresden

Dresden, Deutschland

Breite: 51-08N, Länge: 013-45E, Höhe: 230 m

Beobachtung

Neuester Wetterbericht von vor 32 Minuten, um 02:20 UTC
Wind 5 kt aus West/Nordwest, variierte zwischen West und Nord/Nordwest
Temperatur 18°C
Luftfeuchtigkeit 77%
Luftdruck 1012 hPa
Sichtweite 10 km oder mehr
keine Wolken unter 1500 m und keine Kumulonimbus oder Gewitterwolken

METAR: EDDC 180220Z 30005KT 270V330 CAVOK 18/14 Q1012

Zeit: 04:52 (02:52 UTC)

Prognose

Neuester Wetterbericht von vor 3 Stunden und 52 Minuten, um 23:00 UTC
Gültige Prognose vom 18 um 00 UTC bis 18 um 24 UTC
Wind 8 kt aus West/Nordwest
Sichtweite 10 km oder mehr
keine Wolken unter 1500 m und keine Kumulonimbus oder Gewitterwolken
Zeitweise
vom 18 um 09 UTC bis 18 um 15 UTC
Wind 15 kt aus West/Nordwest, Böen bis zu 25 kt

TAF: EDDC 172300Z 1800/1824 30008KT CAVOK TEMPO 1809/1815 30015G25KT

Wetterbeobachtungen und Prognosen von mehr als 4000 Flughäfen (METAR und TAF Bericht).

Die verfügbaren Stationen werden durch gelbe und rote Markierungen auf der Karte dargestellt.

Führen Sie die Maus auf sie, um den Namen der Station zu sehen.

Darauf klicken, um die Beobachtung von Wetterbeobachtungen und Prognosen zu sehen.

Um die Karte zu ändern : klicken Sie auf den grünen Tasten mit einem schwarzen Kreuz Zum Vergrößern, auf den grünen Button mit einem Gedankenstrich zu verkleinern, oder auf die grünen Pfeile für benachbarte Karten.


METAR-TAF: